sensor_id;sensor_type;location;lat;lon;timestamp;temperature;humidity
66594;DHT22;53450;42.584;23.366;2022-07-18T00:01:58;17.02;50.87
66594;DHT22;53450;42.584;23.366;2022-07-18T00:04:49;16.83;51.07
66594;DHT22;53450;42.584;23.366;2022-07-18T00:07:14;16.72;51.60
66594;DHT22;53450;42.584;23.366;2022-07-18T00:09:41;16.80;52.39
66594;DHT22;53450;42.584;23.366;2022-07-18T00:12:08;16.77;51.91
66594;DHT22;53450;42.584;23.366;2022-07-18T00:14:35;16.63;52.42
66594;DHT22;53450;42.584;23.366;2022-07-18T00:17:01;16.63;52.36
66594;DHT22;53450;42.584;23.366;2022-07-18T00:19:27;16.52;52.92
66594;DHT22;53450;42.584;23.366;2022-07-18T00:21:53;16.49;54.56
66594;DHT22;53450;42.584;23.366;2022-07-18T00:24:18;16.56;54.43
66594;DHT22;53450;42.584;23.366;2022-07-18T00:26:44;16.58;53.86
66594;DHT22;53450;42.584;23.366;2022-07-18T00:29:10;16.59;52.80
66594;DHT22;53450;42.584;23.366;2022-07-18T00:31:36;16.59;53.06
66594;DHT22;53450;42.584;23.366;2022-07-18T00:34:02;16.53;52.39
66594;DHT22;53450;42.584;23.366;2022-07-18T00:36:29;16.42;52.72
66594;DHT22;53450;42.584;23.366;2022-07-18T00:38:55;16.36;52.83
66594;DHT22;53450;42.584;23.366;2022-07-18T00:41:20;16.41;52.77
66594;DHT22;53450;42.584;23.366;2022-07-18T00:43:46;16.42;52.67
66594;DHT22;53450;42.584;23.366;2022-07-18T00:46:12;16.44;53.72
66594;DHT22;53450;42.584;23.366;2022-07-18T00:48:42;16.36;53.91
66594;DHT22;53450;42.584;23.366;2022-07-18T00:51:08;16.32;53.94
66594;DHT22;53450;42.584;23.366;2022-07-18T00:53:34;16.21;54.23
66594;DHT22;53450;42.584;23.366;2022-07-18T00:56:02;16.11;53.99
66594;DHT22;53450;42.584;23.366;2022-07-18T00:58:29;16.13;56.25
66594;DHT22;53450;42.584;23.366;2022-07-18T01:00:56;15.97;52.00
66594;DHT22;53450;42.584;23.366;2022-07-18T01:03:40;15.82;55.22
66594;DHT22;53450;42.584;23.366;2022-07-18T01:06:12;15.69;55.81
66594;DHT22;53450;42.584;23.366;2022-07-18T01:08:38;15.60;55.78
66594;DHT22;53450;42.584;23.366;2022-07-18T01:11:07;15.55;54.45
66594;DHT22;53450;42.584;23.366;2022-07-18T01:13:32;15.55;54.60
66594;DHT22;53450;42.584;23.366;2022-07-18T01:15:58;15.38;54.19
66594;DHT22;53450;42.584;23.366;2022-07-18T01:18:24;15.25;53.73
66594;DHT22;53450;42.584;23.366;2022-07-18T01:20:49;14.78;58.90
66594;DHT22;53450;42.584;23.366;2022-07-18T01:23:15;14.70;59.28
66594;DHT22;53450;42.584;23.366;2022-07-18T01:25:41;14.60;60.07
66594;DHT22;53450;42.584;23.366;2022-07-18T01:28:06;14.73;58.79
66594;DHT22;53450;42.584;23.366;2022-07-18T01:30:32;14.68;56.68
66594;DHT22;53450;42.584;23.366;2022-07-18T01:32:59;14.59;55.34
66594;DHT22;53450;42.584;23.366;2022-07-18T01:35:27;14.46;55.85
66594;DHT22;53450;42.584;23.366;2022-07-18T01:37:55;14.39;55.34
66594;DHT22;53450;42.584;23.366;2022-07-18T01:40:21;14.34;55.90
66594;DHT22;53450;42.584;23.366;2022-07-18T01:42:47;14.12;55.83
66594;DHT22;53450;42.584;23.366;2022-07-18T01:45:12;14.05;52.49
66594;DHT22;53450;42.584;23.366;2022-07-18T01:47:38;14.30;54.83
66594;DHT22;53450;42.584;23.366;2022-07-18T01:50:05;14.40;54.97
66594;DHT22;53450;42.584;23.366;2022-07-18T01:52:31;14.39;53.01
66594;DHT22;53450;42.584;23.366;2022-07-18T01:54:56;14.36;50.97
66594;DHT22;53450;42.584;23.366;2022-07-18T01:57:22;14.39;51.54
66594;DHT22;53450;42.584;23.366;2022-07-18T01:59:49;14.26;51.73
66594;DHT22;53450;42.584;23.366;2022-07-18T02:02:15;14.08;51.29
66594;DHT22;53450;42.584;23.366;2022-07-18T02:04:40;13.55;55.31
66594;DHT22;53450;42.584;23.366;2022-07-18T02:07:29;13.55;56.23
66594;DHT22;53450;42.584;23.366;2022-07-18T02:09:56;13.68;55.58
66594;DHT22;53450;42.584;23.366;2022-07-18T02:12:22;13.69;54.37
66594;DHT22;53450;42.584;23.366;2022-07-18T02:14:48;13.58;54.02
66594;DHT22;53450;42.584;23.366;2022-07-18T02:17:14;13.54;54.08
66594;DHT22;53450;42.584;23.366;2022-07-18T02:19:39;13.44;55.04
66594;DHT22;53450;42.584;23.366;2022-07-18T02:22:05;12.68;57.41
66594;DHT22;53450;42.584;23.366;2022-07-18T02:24:31;12.86;57.06
66594;DHT22;53450;42.584;23.366;2022-07-18T02:26:58;12.88;56.92
66594;DHT22;53450;42.584;23.366;2022-07-18T02:29:49;12.82;56.58
66594;DHT22;53450;42.584;23.366;2022-07-18T02:32:15;12.79;56.84
66594;DHT22;53450;42.584;23.366;2022-07-18T02:34:41;12.69;57.39
66594;DHT22;53450;42.584;23.366;2022-07-18T02:37:06;12.52;57.54
66594;DHT22;53450;42.584;23.366;2022-07-18T02:39:32;12.40;56.52
66594;DHT22;53450;42.584;23.366;2022-07-18T02:41:59;12.49;55.58
66594;DHT22;53450;42.584;23.366;2022-07-18T02:44:25;12.52;55.64
66594;DHT22;53450;42.584;23.366;2022-07-18T02:46:50;12.22;57.39
66594;DHT22;53450;42.584;23.366;2022-07-18T02:49:16;12.42;57.17
66594;DHT22;53450;42.584;23.366;2022-07-18T02:52:04;12.58;53.98
66594;DHT22;53450;42.584;23.366;2022-07-18T02:54:32;12.63;52.84
66594;DHT22;53450;42.584;23.366;2022-07-18T02:56:58;12.68;52.63
66594;DHT22;53450;42.584;23.366;2022-07-18T02:59:24;12.69;52.27
66594;DHT22;53450;42.584;23.366;2022-07-18T03:01:50;12.69;51.75
66594;DHT22;53450;42.584;23.366;2022-07-18T03:04:17;12.72;51.41
66594;DHT22;53450;42.584;23.366;2022-07-18T03:06:43;12.68;50.94
66594;DHT22;53450;42.584;23.366;2022-07-18T03:09:09;12.79;49.24
66594;DHT22;53450;42.584;23.366;2022-07-18T03:11:34;12.89;48.73
66594;DHT22;53450;42.584;23.366;2022-07-18T03:14:00;13.04;48.01
66594;DHT22;53450;42.584;23.366;2022-07-18T03:16:26;13.16;46.48
66594;DHT22;53450;42.584;23.366;2022-07-18T03:18:51;13.28;46.62
66594;DHT22;53450;42.584;23.366;2022-07-18T03:21:17;13.65;44.70
66594;DHT22;53450;42.584;23.366;2022-07-18T03:23:43;13.74;43.59
66594;DHT22;53450;42.584;23.366;2022-07-18T03:26:08;13.88;43.40
66594;DHT22;53450;42.584;23.366;2022-07-18T03:28:34;13.96;42.11
66594;DHT22;53450;42.584;23.366;2022-07-18T03:30:59;14.04;42.39
66594;DHT22;53450;42.584;23.366;2022-07-18T03:33:26;14.10;42.59
66594;DHT22;53450;42.584;23.366;2022-07-18T03:35:51;14.19;42.42
66594;DHT22;53450;42.584;23.366;2022-07-18T03:38:17;14.25;42.53
66594;DHT22;53450;42.584;23.366;2022-07-18T03:40:43;14.34;42.03
66594;DHT22;53450;42.584;23.366;2022-07-18T03:43:08;14.46;43.21
66594;DHT22;53450;42.584;23.366;2022-07-18T03:45:34;14.48;43.40
66594;DHT22;53450;42.584;23.366;2022-07-18T03:47:59;14.56;43.46
66594;DHT22;53450;42.584;23.366;2022-07-18T03:50:25;14.63;42.93
66594;DHT22;53450;42.584;23.366;2022-07-18T03:52:52;14.73;43.14
66594;DHT22;53450;42.584;23.366;2022-07-18T03:55:18;14.81;43.38
66594;DHT22;53450;42.584;23.366;2022-07-18T03:57:44;14.89;43.44
66594;DHT22;53450;42.584;23.366;2022-07-18T04:00:10;14.99;44.08
66594;DHT22;53450;42.584;23.366;2022-07-18T04:02:43;15.06;44.72
66594;DHT22;53450;42.584;23.366;2022-07-18T04:05:10;15.16;44.16
66594;DHT22;53450;42.584;23.366;2022-07-18T04:07:36;15.31;44.53
66594;DHT22;53450;42.584;23.366;2022-07-18T04:10:05;15.56;43.94
66594;DHT22;53450;42.584;23.366;2022-07-18T04:12:56;16.71;42.06
66594;DHT22;53450;42.584;23.366;2022-07-18T04:15:24;17.72;40.44
66594;DHT22;53450;42.584;23.366;2022-07-18T04:17:50;19.42;36.51
66594;DHT22;53450;42.584;23.366;2022-07-18T04:20:17;20.56;34.52
66594;DHT22;53450;42.584;23.366;2022-07-18T04:25:10;21.06;33.27
66594;DHT22;53450;42.584;23.366;2022-07-18T04:27:35;21.28;32.80
66594;DHT22;53450;42.584;23.366;2022-07-18T04:30:01;20.05;34.70
66594;DHT22;53450;42.584;23.366;2022-07-18T04:32:27;19.05;36.08
66594;DHT22;53450;42.584;23.366;2022-07-18T04:34:52;18.29;37.73
66594;DHT22;53450;42.584;23.366;2022-07-18T04:37:18;17.79;39.44
66594;DHT22;53450;42.584;23.366;2022-07-18T04:39:43;17.62;40.33
66594;DHT22;53450;42.584;23.366;2022-07-18T04:42:09;17.57;40.13
66594;DHT22;53450;42.584;23.366;2022-07-18T04:44:35;17.62;41.03
66594;DHT22;53450;42.584;23.366;2022-07-18T04:47:00;17.64;41.70
66594;DHT22;53450;42.584;23.366;2022-07-18T04:49:26;17.61;40.01
66594;DHT22;53450;42.584;23.366;2022-07-18T04:51:51;17.65;40.17
66594;DHT22;53450;42.584;23.366;2022-07-18T04:54:17;17.75;40.98
66594;DHT22;53450;42.584;23.366;2022-07-18T04:56:42;17.77;38.63
66594;DHT22;53450;42.584;23.366;2022-07-18T04:59:08;17.74;39.23
66594;DHT22;53450;42.584;23.366;2022-07-18T05:01:33;17.77;38.86
66594;DHT22;53450;42.584;23.366;2022-07-18T05:04:25;17.96;39.64
66594;DHT22;53450;42.584;23.366;2022-07-18T05:06:51;18.02;37.82
66594;DHT22;53450;42.584;23.366;2022-07-18T05:09:16;17.96;39.57
66594;DHT22;53450;42.584;23.366;2022-07-18T05:11:42;17.99;39.12
66594;DHT22;53450;42.584;23.366;2022-07-18T05:14:07;17.89;41.20
66594;DHT22;53450;42.584;23.366;2022-07-18T05:16:33;18.12;42.00
66594;DHT22;53450;42.584;23.366;2022-07-18T05:18:58;18.14;39.75
66594;DHT22;53450;42.584;23.366;2022-07-18T05:21:24;17.99;39.46
66594;DHT22;53450;42.584;23.366;2022-07-18T05:23:49;17.91;38.21
66594;DHT22;53450;42.584;23.366;2022-07-18T05:26:15;17.83;37.04
66594;DHT22;53450;42.584;23.366;2022-07-18T05:28:40;17.83;37.55
66594;DHT22;53450;42.584;23.366;2022-07-18T05:31:06;17.92;38.38
66594;DHT22;53450;42.584;23.366;2022-07-18T05:33:32;18.05;38.24
66594;DHT22;53450;42.584;23.366;2022-07-18T05:35:57;18.09;39.02
66594;DHT22;53450;42.584;23.366;2022-07-18T05:38:23;18.30;40.19
66594;DHT22;53450;42.584;23.366;2022-07-18T05:40:48;18.40;38.42
66594;DHT22;53450;42.584;23.366;2022-07-18T05:43:14;18.49;40.02
66594;DHT22;53450;42.584;23.366;2022-07-18T05:45:40;18.58;40.56
66594;DHT22;53450;42.584;23.366;2022-07-18T05:48:06;18.61;38.28
66594;DHT22;53450;42.584;23.366;2022-07-18T05:50:31;18.67;40.37
66594;DHT22;53450;42.584;23.366;2022-07-18T05:52:57;18.63;41.41
66594;DHT22;53450;42.584;23.366;2022-07-18T05:55:23;18.65;42.19
66594;DHT22;53450;42.584;23.366;2022-07-18T05:57:54;18.94;39.40
66594;DHT22;53450;42.584;23.366;2022-07-18T06:00:20;18.87;40.01
66594;DHT22;53450;42.584;23.366;2022-07-18T06:02:49;19.01;38.71
66594;DHT22;53450;42.584;23.366;2022-07-18T06:05:15;19.04;36.32
66594;DHT22;53450;42.584;23.366;2022-07-18T06:07:41;19.02;37.85
66594;DHT22;53450;42.584;23.366;2022-07-18T06:10:07;19.12;37.04
66594;DHT22;53450;42.584;23.366;2022-07-18T06:12:33;19.08;36.81
66594;DHT22;53450;42.584;23.366;2022-07-18T06:14:59;18.89;36.47
66594;DHT22;53450;42.584;23.366;2022-07-18T06:17:25;18.77;36.41
66594;DHT22;53450;42.584;23.366;2022-07-18T06:19:53;18.71;36.10
66594;DHT22;53450;42.584;23.366;2022-07-18T06:22:19;18.85;37.99
66594;DHT22;53450;42.584;23.366;2022-07-18T06:24:45;19.01;37.77
66594;DHT22;53450;42.584;23.366;2022-07-18T06:27:11;19.08;38.92
66594;DHT22;53450;42.584;23.366;2022-07-18T06:29:36;18.98;38.51
66594;DHT22;53450;42.584;23.366;2022-07-18T06:32:02;19.02;38.05
66594;DHT22;53450;42.584;23.366;2022-07-18T06:34:27;19.18;36.98
66594;DHT22;53450;42.584;23.366;2022-07-18T06:36:53;19.26;36.80
66594;DHT22;53450;42.584;23.366;2022-07-18T06:39:19;19.32;36.52
66594;DHT22;53450;42.584;23.366;2022-07-18T06:41:44;19.30;34.95
66594;DHT22;53450;42.584;23.366;2022-07-18T06:44:12;19.42;35.78
66594;DHT22;53450;42.584;23.366;2022-07-18T06:46:38;19.45;35.78
66594;DHT22;53450;42.584;23.366;2022-07-18T06:49:04;19.18;36.55
66594;DHT22;53450;42.584;23.366;2022-07-18T06:51:30;19.09;36.31
66594;DHT22;53450;42.584;23.366;2022-07-18T06:53:56;19.35;35.69
66594;DHT22;53450;42.584;23.366;2022-07-18T06:56:23;19.42;33.20
66594;DHT22;53450;42.584;23.366;2022-07-18T06:58:48;19.57;34.19
66594;DHT22;53450;42.584;23.366;2022-07-18T07:01:16;19.60;33.93
66594;DHT22;53450;42.584;23.366;2022-07-18T07:03:42;19.59;35.21
66594;DHT22;53450;42.584;23.366;2022-07-18T07:06:08;19.70;34.87
66594;DHT22;53450;42.584;23.366;2022-07-18T07:08:33;19.71;34.34
66594;DHT22;53450;42.584;23.366;2022-07-18T07:11:00;19.81;34.13
66594;DHT22;53450;42.584;23.366;2022-07-18T07:13:25;19.86;35.19
66594;DHT22;53450;42.584;23.366;2022-07-18T07:15:51;19.94;33.79
66594;DHT22;53450;42.584;23.366;2022-07-18T07:18:17;20.11;35.66
66594;DHT22;53450;42.584;23.366;2022-07-18T07:20:43;20.22;35.68
66594;DHT22;53450;42.584;23.366;2022-07-18T07:23:08;20.32;36.64
66594;DHT22;53450;42.584;23.366;2022-07-18T07:25:35;20.44;35.10
66594;DHT22;53450;42.584;23.366;2022-07-18T07:28:02;20.36;34.11
66594;DHT22;53450;42.584;23.366;2022-07-18T07:30:28;20.36;36.32
66594;DHT22;53450;42.584;23.366;2022-07-18T07:32:54;20.44;34.37
66594;DHT22;53450;42.584;23.366;2022-07-18T07:35:21;20.51;35.23
66594;DHT22;53450;42.584;23.366;2022-07-18T07:37:57;20.71;34.93
66594;DHT22;53450;42.584;23.366;2022-07-18T07:40:26;20.71;35.52
66594;DHT22;53450;42.584;23.366;2022-07-18T07:42:52;20.53;35.25
66594;DHT22;53450;42.584;23.366;2022-07-18T07:45:19;20.35;36.69
66594;DHT22;53450;42.584;23.366;2022-07-18T07:47:44;20.35;37.54
66594;DHT22;53450;42.584;23.366;2022-07-18T07:50:11;20.49;37.13
66594;DHT22;53450;42.584;23.366;2022-07-18T07:52:37;20.57;37.66
66594;DHT22;53450;42.584;23.366;2022-07-18T07:55:07;20.62;37.29
66594;DHT22;53450;42.584;23.366;2022-07-18T07:57:32;20.71;37.77
66594;DHT22;53450;42.584;23.366;2022-07-18T08:00:03;20.79;36.40
66594;DHT22;53450;42.584;23.366;2022-07-18T08:02:37;20.77;36.55
66594;DHT22;53450;42.584;23.366;2022-07-18T08:05:03;20.84;36.12
66594;DHT22;53450;42.584;23.366;2022-07-18T08:07:29;20.92;35.54
66594;DHT22;53450;42.584;23.366;2022-07-18T08:09:54;20.57;35.43
66594;DHT22;53450;42.584;23.366;2022-07-18T08:12:20;20.55;35.94
66594;DHT22;53450;42.584;23.366;2022-07-18T08:14:45;20.66;36.54
66594;DHT22;53450;42.584;23.366;2022-07-18T08:17:11;20.65;38.07
66594;DHT22;53450;42.584;23.366;2022-07-18T08:19:37;20.72;36.17
66594;DHT22;53450;42.584;23.366;2022-07-18T08:22:03;20.68;35.24
66594;DHT22;53450;42.584;23.366;2022-07-18T08:24:28;20.63;35.02
66594;DHT22;53450;42.584;23.366;2022-07-18T08:26:54;20.73;37.24
66594;DHT22;53450;42.584;23.366;2022-07-18T08:29:20;20.76;35.07
66594;DHT22;53450;42.584;23.366;2022-07-18T08:31:45;20.90;36.90
66594;DHT22;53450;42.584;23.366;2022-07-18T08:34:11;21.06;35.25
66594;DHT22;53450;42.584;23.366;2022-07-18T08:36:36;20.79;35.99
66594;DHT22;53450;42.584;23.366;2022-07-18T08:39:02;20.66;35.46
66594;DHT22;53450;42.584;23.366;2022-07-18T08:41:28;20.90;35.07
66594;DHT22;53450;42.584;23.366;2022-07-18T08:43:54;20.80;35.27
66594;DHT22;53450;42.584;23.366;2022-07-18T08:46:21;20.90;36.45
66594;DHT22;53450;42.584;23.366;2022-07-18T08:48:48;21.21;35.62
66594;DHT22;53450;42.584;23.366;2022-07-18T08:51:14;21.24;33.91
66594;DHT22;53450;42.584;23.366;2022-07-18T08:53:40;21.42;34.59
66594;DHT22;53450;42.584;23.366;2022-07-18T08:56:06;21.58;33.33
66594;DHT22;53450;42.584;23.366;2022-07-18T08:58:31;21.47;32.01
66594;DHT22;53450;42.584;23.366;2022-07-18T09:00:57;21.21;31.27
66594;DHT22;53450;42.584;23.366;2022-07-18T09:03:26;21.28;33.54
66594;DHT22;53450;42.584;23.366;2022-07-18T09:06:11;21.55;33.11
66594;DHT22;53450;42.584;23.366;2022-07-18T09:08:39;21.66;30.83
66594;DHT22;53450;42.584;23.366;2022-07-18T09:11:09;21.69;31.46
66594;DHT22;53450;42.584;23.366;2022-07-18T09:13:36;21.51;31.64
66594;DHT22;53450;42.584;23.366;2022-07-18T09:18:34;21.66;33.48
66594;DHT22;53450;42.584;23.366;2022-07-18T09:21:10;21.69;33.56
66594;DHT22;53450;42.584;23.366;2022-07-18T09:23:39;21.85;32.36
66594;DHT22;53450;42.584;23.366;2022-07-18T09:26:05;21.85;35.11
66594;DHT22;53450;42.584;23.366;2022-07-18T09:28:51;21.99;33.03
66594;DHT22;53450;42.584;23.366;2022-07-18T09:31:22;22.10;32.24
66594;DHT22;53450;42.584;23.366;2022-07-18T09:33:59;21.93;31.44
66594;DHT22;53450;42.584;23.366;2022-07-18T09:36:31;22.00;32.51
66594;DHT22;53450;42.584;23.366;2022-07-18T09:39:19;21.91;33.87
66594;DHT22;53450;42.584;23.366;2022-07-18T09:42:15;22.12;33.78
66594;DHT22;53450;42.584;23.366;2022-07-18T09:45:06;22.26;33.73
66594;DHT22;53450;42.584;23.366;2022-07-18T09:48:03;22.35;34.44
66594;DHT22;53450;42.584;23.366;2022-07-18T09:51:02;22.33;34.80
66594;DHT22;53450;42.584;23.366;2022-07-18T09:53:30;22.36;34.18
66594;DHT22;53450;42.584;23.366;2022-07-18T09:55:58;22.17;34.39
66594;DHT22;53450;42.584;23.366;2022-07-18T09:58:27;22.33;34.92
66594;DHT22;53450;42.584;23.366;2022-07-18T10:00:54;22.43;35.56
66594;DHT22;53450;42.584;23.366;2022-07-18T10:03:21;22.21;35.02
66594;DHT22;53450;42.584;23.366;2022-07-18T10:05:49;22.33;35.61
66594;DHT22;53450;42.584;23.366;2022-07-18T10:08:21;22.54;35.16
66594;DHT22;53450;42.584;23.366;2022-07-18T10:10:48;22.57;34.41
66594;DHT22;53450;42.584;23.366;2022-07-18T10:13:15;22.64;34.85
66594;DHT22;53450;42.584;23.366;2022-07-18T10:15:42;22.65;35.10
66594;DHT22;53450;42.584;23.366;2022-07-18T10:18:15;22.90;35.56
66594;DHT22;53450;42.584;23.366;2022-07-18T10:23:33;22.81;34.54
66594;DHT22;53450;42.584;23.366;2022-07-18T10:28:34;22.91;34.29
66594;DHT22;53450;42.584;23.366;2022-07-18T10:31:16;23.16;35.41
66594;DHT22;53450;42.584;23.366;2022-07-18T10:33:44;23.36;34.89
66594;DHT22;53450;42.584;23.366;2022-07-18T10:36:17;23.28;34.05
66594;DHT22;53450;42.584;23.366;2022-07-18T10:39:32;23.15;32.19
66594;DHT22;53450;42.584;23.366;2022-07-18T10:57:39;23.77;32.96
66594;DHT22;53450;42.584;23.366;2022-07-18T11:00:06;23.73;31.66
66594;DHT22;53450;42.584;23.366;2022-07-18T11:02:36;23.59;32.88
66594;DHT22;53450;42.584;23.366;2022-07-18T11:15:54;23.96;32.32
66594;DHT22;53450;42.584;23.366;2022-07-18T11:18:21;24.22;32.53
66594;DHT22;53450;42.584;23.366;2022-07-18T11:20:47;24.31;32.05
66594;DHT22;53450;42.584;23.366;2022-07-18T11:23:42;24.17;31.82
66594;DHT22;53450;42.584;23.366;2022-07-18T11:26:14;24.11;32.62
66594;DHT22;53450;42.584;23.366;2022-07-18T11:28:41;24.18;32.61
66594;DHT22;53450;42.584;23.366;2022-07-18T11:31:09;24.24;31.33
66594;DHT22;53450;42.584;23.366;2022-07-18T11:33:37;23.86;31.02
66594;DHT22;53450;42.584;23.366;2022-07-18T11:36:06;24.36;30.79
66594;DHT22;53450;42.584;23.366;2022-07-18T11:38:32;24.80;29.66
66594;DHT22;53450;42.584;23.366;2022-07-18T11:40:58;25.14;28.73
66594;DHT22;53450;42.584;23.366;2022-07-18T11:43:26;25.04;28.27
66594;DHT22;53450;42.584;23.366;2022-07-18T11:46:02;25.22;28.87
66594;DHT22;53450;42.584;23.366;2022-07-18T11:48:28;25.17;27.47
66594;DHT22;53450;42.584;23.366;2022-07-18T11:50:54;24.99;28.40
66594;DHT22;53450;42.584;23.366;2022-07-18T11:53:19;25.02;28.06
66594;DHT22;53450;42.584;23.366;2022-07-18T11:55:45;25.02;28.06
66594;DHT22;53450;42.584;23.366;2022-07-18T11:58:13;25.04;27.57
66594;DHT22;53450;42.584;23.366;2022-07-18T12:00:40;25.07;26.33
66594;DHT22;53450;42.584;23.366;2022-07-18T12:03:37;25.09;27.85
66594;DHT22;53450;42.584;23.366;2022-07-18T12:06:15;24.93;27.02
66594;DHT22;53450;42.584;23.366;2022-07-18T12:08:51;24.94;27.61
66594;DHT22;53450;42.584;23.366;2022-07-18T12:16:29;25.22;28.36
66594;DHT22;53450;42.584;23.366;2022-07-18T12:18:58;25.40;29.32
66594;DHT22;53450;42.584;23.366;2022-07-18T12:21:24;25.54;29.78
66594;DHT22;53450;42.584;23.366;2022-07-18T12:24:32;25.52;27.65
66594;DHT22;53450;42.584;23.366;2022-07-18T12:30:07;25.12;29.01
66594;DHT22;53450;42.584;23.366;2022-07-18T12:35:35;25.13;27.85
66594;DHT22;53450;42.584;23.366;2022-07-18T12:38:15;25.10;27.59
66594;DHT22;53450;42.584;23.366;2022-07-18T12:45:43;25.70;28.26
66594;DHT22;53450;42.584;23.366;2022-07-18T12:48:35;25.22;28.38
66594;DHT22;53450;42.584;23.366;2022-07-18T12:51:03;25.41;27.12
66594;DHT22;53450;42.584;23.366;2022-07-18T12:53:31;25.92;27.54
66594;DHT22;53450;42.584;23.366;2022-07-18T12:55:58;26.19;27.26
66594;DHT22;53450;42.584;23.366;2022-07-18T12:58:23;26.51;26.37
66594;DHT22;53450;42.584;23.366;2022-07-18T13:00:49;26.80;27.25
66594;DHT22;53450;42.584;23.366;2022-07-18T13:03:15;26.92;26.97
66594;DHT22;53450;42.584;23.366;2022-07-18T13:05:42;26.22;26.68
66594;DHT22;53450;42.584;23.366;2022-07-18T13:08:07;25.93;27.53
66594;DHT22;53450;42.584;23.366;2022-07-18T13:10:35;26.13;27.84
66594;DHT22;53450;42.584;23.366;2022-07-18T13:13:04;26.46;26.68
66594;DHT22;53450;42.584;23.366;2022-07-18T13:15:31;26.67;27.43
66594;DHT22;53450;42.584;23.366;2022-07-18T13:17:57;26.88;27.37
66594;DHT22;53450;42.584;23.366;2022-07-18T13:20:23;26.30;27.18
66594;DHT22;53450;42.584;23.366;2022-07-18T13:22:49;26.53;27.65
66594;DHT22;53450;42.584;23.366;2022-07-18T13:25:14;26.78;27.35
66594;DHT22;53450;42.584;23.366;2022-07-18T13:27:40;26.67;27.67
66594;DHT22;53450;42.584;23.366;2022-07-18T13:30:07;26.71;28.29
66594;DHT22;53450;42.584;23.366;2022-07-18T13:32:34;26.35;27.92
66594;DHT22;53450;42.584;23.366;2022-07-18T13:35:00;26.22;27.61
66594;DHT22;53450;42.584;23.366;2022-07-18T13:37:25;26.18;28.10
66594;DHT22;53450;42.584;23.366;2022-07-18T13:39:51;26.35;27.92
66594;DHT22;53450;42.584;23.366;2022-07-18T13:42:17;26.39;28.69
66594;DHT22;53450;42.584;23.366;2022-07-18T13:44:43;26.26;28.03
66594;DHT22;53450;42.584;23.366;2022-07-18T13:47:14;26.09;31.41
66594;DHT22;53450;42.584;23.366;2022-07-18T13:49:39;26.25;31.24
66594;DHT22;53450;42.584;23.366;2022-07-18T13:52:05;26.16;30.99
66594;DHT22;53450;42.584;23.366;2022-07-18T13:54:31;26.28;30.75
66594;DHT22;53450;42.584;23.366;2022-07-18T13:56:57;26.36;31.33
66594;DHT22;53450;42.584;23.366;2022-07-18T13:59:22;26.56;30.80
66594;DHT22;53450;42.584;23.366;2022-07-18T14:01:48;26.57;30.19
66594;DHT22;53450;42.584;23.366;2022-07-18T14:04:16;26.26;29.55
66594;DHT22;53450;42.584;23.366;2022-07-18T14:06:41;26.25;29.98
66594;DHT22;53450;42.584;23.366;2022-07-18T14:09:07;26.43;30.36
66594;DHT22;53450;42.584;23.366;2022-07-18T14:11:33;26.43;31.96
66594;DHT22;53450;42.584;23.366;2022-07-18T14:14:00;26.15;31.39
66594;DHT22;53450;42.584;23.366;2022-07-18T14:16:26;26.15;32.78
66594;DHT22;53450;42.584;23.366;2022-07-18T14:18:51;25.96;32.73
66594;DHT22;53450;42.584;23.366;2022-07-18T14:21:17;25.79;33.62
66594;DHT22;53450;42.584;23.366;2022-07-18T14:23:42;25.72;33.97
66594;DHT22;53450;42.584;23.366;2022-07-18T14:26:08;25.86;33.77
66594;DHT22;53450;42.584;23.366;2022-07-18T14:28:34;25.58;33.95
66594;DHT22;53450;42.584;23.366;2022-07-18T14:30:59;25.16;34.58
66594;DHT22;53450;42.584;23.366;2022-07-18T14:33:25;24.90;34.42
66594;DHT22;53450;42.584;23.366;2022-07-18T14:35:50;25.02;35.11
66594;DHT22;53450;42.584;23.366;2022-07-18T14:38:16;25.04;34.83
66594;DHT22;53450;42.584;23.366;2022-07-18T14:41:06;25.24;36.13
66594;DHT22;53450;42.584;23.366;2022-07-18T14:43:32;25.24;36.06
66594;DHT22;53450;42.584;23.366;2022-07-18T14:45:57;25.14;35.78
66594;DHT22;53450;42.584;23.366;2022-07-18T14:48:23;24.97;36.61
66594;DHT22;53450;42.584;23.366;2022-07-18T14:50:49;24.83;36.30
66594;DHT22;53450;42.584;23.366;2022-07-18T14:53:14;24.77;35.92
66594;DHT22;53450;42.584;23.366;2022-07-18T14:55:40;24.96;35.90
66594;DHT22;53450;42.584;23.366;2022-07-18T14:58:06;25.26;35.44
66594;DHT22;53450;42.584;23.366;2022-07-18T15:00:31;25.20;36.14
66594;DHT22;53450;42.584;23.366;2022-07-18T15:02:57;25.35;35.56
66594;DHT22;53450;42.584;23.366;2022-07-18T15:05:22;25.33;36.35
66594;DHT22;53450;42.584;23.366;2022-07-18T15:07:48;25.22;36.31
66594;DHT22;53450;42.584;23.366;2022-07-18T15:10:13;25.12;35.73
66594;DHT22;53450;42.584;23.366;2022-07-18T15:12:40;24.89;36.37
66594;DHT22;53450;42.584;23.366;2022-07-18T15:15:06;24.86;36.69
66594;DHT22;53450;42.584;23.366;2022-07-18T15:17:32;24.90;35.81
66594;DHT22;53450;42.584;23.366;2022-07-18T15:19:58;25.20;36.16
66594;DHT22;53450;42.584;23.366;2022-07-18T15:22:23;25.23;36.45
66594;DHT22;53450;42.584;23.366;2022-07-18T15:24:49;24.68;36.41
66594;DHT22;53450;42.584;23.366;2022-07-18T15:27:15;24.52;36.63
66594;DHT22;53450;42.584;23.366;2022-07-18T15:29:40;24.63;36.57
66594;DHT22;53450;42.584;23.366;2022-07-18T15:32:06;24.77;36.90
66594;DHT22;53450;42.584;23.366;2022-07-18T15:34:38;24.63;36.50
66594;DHT22;53450;42.584;23.366;2022-07-18T15:37:04;24.65;36.12
66594;DHT22;53450;42.584;23.366;2022-07-18T15:39:31;24.82;35.56
66594;DHT22;53450;42.584;23.366;2022-07-18T15:41:57;25.16;36.05
66594;DHT22;53450;42.584;23.366;2022-07-18T15:44:23;24.94;36.44
66594;DHT22;53450;42.584;23.366;2022-07-18T15:46:49;24.92;35.98
66594;DHT22;53450;42.584;23.366;2022-07-18T15:49:15;24.85;35.87
66594;DHT22;53450;42.584;23.366;2022-07-18T15:51:40;25.06;36.00
66594;DHT22;53450;42.584;23.366;2022-07-18T15:54:36;25.06;36.80
66594;DHT22;53450;42.584;23.366;2022-07-18T15:57:03;24.39;36.97
66594;DHT22;53450;42.584;23.366;2022-07-18T15:59:28;24.31;37.27
66594;DHT22;53450;42.584;23.366;2022-07-18T16:01:54;24.14;37.68
66594;DHT22;53450;42.584;23.366;2022-07-18T16:04:20;24.26;38.17
66594;DHT22;53450;42.584;23.366;2022-07-18T16:06:46;24.28;38.06
66594;DHT22;53450;42.584;23.366;2022-07-18T16:09:12;24.31;38.09
66594;DHT22;53450;42.584;23.366;2022-07-18T16:11:38;24.42;37.98
66594;DHT22;53450;42.584;23.366;2022-07-18T16:14:09;24.63;38.31